Time;durP1;ratioP1;P1;durP2;ratioP2;P2;SDS_P1;SDS_P2;PMS_P1;PMS_P2;Temp;Humidity;BMP_temperature;BMP_pressure;BME280_temperature;BME280_humidity;BME280_pressure;Samples;Min_cycle;Max_cycle;Signal;HPM_P1;HPM_P2
2022/04/27 00:00:04;;;;;;;20.00;13.97;;;8.90;99.90;;;9.17;71.95;97903.28;5046141;28;20068;-54
2022/04/27 00:02:39;;;;;;;25.37;14.67;;;8.80;99.90;;;9.16;71.76;97903.41;5048656;28;20060;-55
2022/04/27 00:05:07;;;;;;;21.47;14.60;;;8.80;99.90;;;9.17;72.01;97911.25;5045703;28;20251;-55
2022/04/27 00:07:35;;;;;;;22.80;14.43;;;8.80;99.90;;;9.09;72.14;97910.28;5045697;28;20049;-56
2022/04/27 00:10:05;;;;;;;24.23;15.57;;;8.70;99.90;;;9.01;72.41;97911.84;5044511;28;20055;-56
2022/04/27 00:12:38;;;;;;;25.07;15.63;;;8.60;99.90;;;8.99;72.40;97900.53;5045807;28;20064;-56
2022/04/27 00:15:07;;;;;;;24.67;15.97;;;8.60;99.90;;;8.96;72.57;97889.38;5045548;28;20053;-53
2022/04/27 00:17:35;;;;;;;27.77;16.83;;;8.60;99.90;;;9.04;72.39;97889.50;5044906;28;20049;-55
2022/04/27 00:20:05;;;;;;;24.47;15.70;;;8.80;99.90;;;9.09;72.50;97900.50;5045454;28;20049;-51
2022/04/27 00:22:34;;;;;;;26.27;16.57;;;8.80;99.90;;;9.09;72.25;97889.88;5044152;28;20236;-55
2022/04/27 00:25:04;;;;;;;24.77;16.53;;;8.80;99.90;;;9.16;72.33;97896.28;5045311;28;20045;-55
2022/04/27 00:27:32;;;;;;;25.30;16.43;;;8.90;99.90;;;9.12;72.03;97891.41;5044116;28;20049;-55
2022/04/27 00:30:00;;;;;;;26.20;17.37;;;8.80;99.90;;;9.16;72.17;97892.78;5045626;28;20045;-55
2022/04/27 00:32:28;;;;;;;24.83;16.13;;;8.80;99.90;;;9.16;72.17;97887.47;5045943;28;20374;-55
2022/04/27 00:34:56;;;;;;;24.53;15.87;;;8.80;99.90;;;9.23;71.85;97891.22;5045194;28;20059;-52
2022/04/27 00:37:24;;;;;;;26.00;15.50;;;8.90;99.90;;;9.31;71.86;97891.34;5043173;28;20083;-55
2022/04/27 00:39:52;;;;;;;26.97;17.50;;;9.10;99.90;;;9.38;71.68;97894.22;5045507;28;20355;-56
2022/04/27 00:42:21;;;;;;;25.43;16.43;;;9.20;99.90;;;9.36;71.59;97896.19;5045201;28;20049;-55
2022/04/27 00:44:50;;;;;;;23.03;14.97;;;9.10;99.90;;;9.30;71.52;97894.94;5044107;28;20054;-51
2022/04/27 00:47:19;;;;;;;25.50;16.70;;;9.00;99.90;;;9.24;71.86;97901.69;5043641;28;20047;-54
2022/04/27 00:49:50;;;;;;;29.20;17.93;;;8.90;99.90;;;9.17;71.99;97902.41;5044930;28;20049;-56
2022/04/27 00:52:20;;;;;;;27.10;17.67;;;8.80;99.90;;;9.15;71.79;97896.41;5043913;28;20238;-55
2022/04/27 00:54:52;;;;;;;23.47;15.17;;;8.80;99.90;;;9.13;72.14;97903.69;5044902;28;20045;-54
2022/04/27 00:57:23;;;;;;;28.13;16.87;;;8.80;99.90;;;9.07;72.20;97905.13;5026705;28;20068;-56
2022/04/27 00:59:53;;;;;;;26.13;16.77;;;8.70;99.90;;;8.90;72.69;97919.16;5044537;28;20049;-55
2022/04/27 01:02:21;;;;;;;29.63;17.87;;;8.60;99.90;;;8.77;73.29;97922.94;5043850;28;20046;-52
2022/04/27 01:04:50;;;;;;;30.67;18.63;;;8.40;99.90;;;8.81;72.84;97913.72;5044671;28;20045;-56
2022/04/27 01:07:18;;;;;;;25.53;17.83;;;8.40;99.90;;;8.79;73.31;97931.63;5043214;28;20053;-55
2022/04/27 01:09:47;;;;;;;28.17;18.47;;;8.40;99.90;;;8.78;73.67;97926.44;5042926;28;20059;-53
2022/04/27 01:12:15;;;;;;;29.63;17.57;;;8.50;99.90;;;8.65;74.09;97929.41;5043976;28;20408;-55
2022/04/27 01:14:52;;;;;;;27.33;17.70;;;8.30;99.90;;;8.71;73.99;97926.19;5043973;28;20373;-53
2022/04/27 01:17:24;;;;;;;26.90;16.63;;;8.40;99.90;;;8.66;73.83;97933.72;5059378;28;20377;-53
2022/04/27 01:19:53;;;;;;;26.10;17.30;;;8.40;99.90;;;8.69;73.69;97933.47;5043336;28;20244;-54
2022/04/27 01:22:21;;;;;;;27.40;18.03;;;8.40;99.90;;;8.66;74.01;97939.03;5044282;28;20052;-54
2022/04/27 01:24:50;;;;;;;27.30;17.40;;;8.40;99.90;;;8.44;75.38;97932.22;5043369;28;20369;-54
2022/04/27 01:27:18;;;;;;;30.40;18.30;;;8.20;99.90;;;8.63;74.05;97934.03;5042297;28;20057;-52
2022/04/27 01:29:46;;;;;;;28.97;18.23;;;8.40;99.90;;;8.62;74.33;97933.16;5043248;28;20251;-53
2022/04/27 01:32:15;;;;;;;27.77;17.37;;;8.40;99.90;;;8.65;74.65;97937.38;5042619;28;20256;-54
2022/04/27 01:34:43;;;;;;;31.27;19.37;;;8.40;99.90;;;8.65;74.44;97924.09;5059528;28;20246;-53
2022/04/27 01:39:58;;;;;;;29.37;18.87;;;8.50;99.90;;;8.69;74.29;97928.16;5042902;28;20059;-55
2022/04/27 01:42:25;;;;;;;33.10;18.83;;;8.40;99.90;;;8.76;74.04;97921.28;5043594;28;20046;-51
2022/04/27 01:44:53;;;;;;;26.33;16.70;;;8.50;99.90;;;8.84;74.12;97925.84;5042979;28;20126;-56
2022/04/27 01:47:21;;;;;;;30.50;19.33;;;8.60;99.90;;;8.90;73.95;97933.28;5042650;28;20331;-53
2022/04/27 01:49:49;;;;;;;30.87;17.97;;;8.60;99.90;;;8.94;73.74;97928.53;5043055;28;20049;-54
2022/04/27 01:55:04;;;;;;;30.90;19.43;;;8.60;99.90;;;8.71;74.34;97931.50;5043559;28;20037;-51
2022/04/27 01:57:33;;;;;;;30.47;18.60;;;8.40;99.90;;;8.75;74.29;97935.53;5042564;28;20053;-55
2022/04/27 02:00:01;;;;;;;33.97;20.83;;;8.40;99.90;;;8.79;74.12;97933.44;5041845;28;20053;-50
2022/04/27 02:02:29;;;;;;;33.70;20.37;;;8.50;99.90;;;8.73;74.60;97931.34;5043601;28;20049;-54
2022/04/27 02:04:58;;;;;;;33.83;19.47;;;8.40;99.90;;;8.72;74.60;97927.84;5042288;28;20049;-51
2022/04/27 02:07:26;;;;;;;37.00;22.40;;;8.40;99.90;;;8.79;74.26;97936.09;5041752;28;20243;-54
2022/04/27 02:09:54;;;;;;;32.37;18.57;;;8.50;99.90;;;8.54;75.58;97935.69;5059074;28;20050;-56
2022/04/27 02:12:22;;;;;;;31.97;19.50;;;8.30;99.90;;;8.64;75.72;97938.34;5042468;28;20053;-51
2022/04/27 02:15:06;;;;;;;33.37;18.30;;;8.40;99.90;;;8.75;74.73;97937.38;5043503;28;20047;-52
2022/04/27 02:17:35;;;;;;;33.73;18.27;;;8.50;99.90;;;8.76;75.17;97944.34;5042033;28;20053;-53
2022/04/27 02:20:04;;;;;;;33.63;20.67;;;8.50;99.90;;;8.74;74.80;97951.59;5043818;28;20080;-56
2022/04/27 02:22:36;;;;;;;28.83;18.77;;;8.50;99.90;;;8.76;74.85;97952.28;5042267;28;20053;-54
2022/04/27 02:25:05;;;;;;;27.00;18.07;;;8.50;99.90;;;8.60;74.98;97944.91;5043161;28;20053;-54
2022/04/27 02:27:33;;;;;;;26.10;16.43;;;8.40;99.90;;;8.73;74.86;97944.63;5041850;28;20240;-53
2022/04/27 02:30:03;;;;;;;29.50;15.80;;;8.50;99.90;;;8.72;75.08;97948.25;5041950;28;20049;-55
2022/04/27 02:32:33;;;;;;;27.10;16.07;;;8.50;99.90;;;8.64;75.00;97949.78;5041951;28;20083;-53
2022/04/27 02:35:01;;;;;;;27.93;17.93;;;8.40;99.90;;;8.65;74.91;97948.81;5042687;28;20217;-55
2022/04/27 02:37:30;;;;;;;26.97;17.10;;;8.40;99.90;;;8.76;74.77;97947.84;5041140;28;20355;-55
2022/04/27 02:40:00;;;;;;;30.30;17.63;;;8.50;99.90;;;8.88;74.53;97956.47;5042015;28;20253;-54
2022/04/27 02:42:29;;;;;;;28.93;17.03;;;8.70;99.90;;;8.89;74.64;97955.47;5057645;28;20059;-56
2022/04/27 02:44:58;;;;;;;26.17;16.27;;;8.60;99.90;;;8.84;74.70;97955.06;5041604;28;20242;-53
2022/04/27 02:47:26;;;;;;;26.83;17.57;;;8.60;99.90;;;8.77;74.84;97959.28;5040496;28;20056;-54
2022/04/27 02:52:54;;;;;;;26.93;15.90;;;8.50;99.90;;;8.80;74.55;97961.66;5041441;28;20050;-54
2022/04/27 02:55:27;;;;;;;25.77;15.63;;;8.50;99.90;;;8.84;74.47;97947.97;5057711;28;20060;-54
2022/04/27 02:57:57;;;;;;;27.40;16.47;;;8.50;99.90;;;8.89;74.39;97958.13;5040993;28;20056;-51
2022/04/27 03:00:25;;;;;;;25.57;16.07;;;8.60;99.90;;;8.92;74.29;97957.00;5041535;28;20053;-55
2022/04/27 03:02:56;;;;;;;23.53;14.70;;;8.60;99.90;;;8.97;74.35;97952.13;5041561;28;20057;-55
2022/04/27 03:05:25;;;;;;;24.50;15.23;;;8.70;99.90;;;8.99;74.36;97953.63;5024910;28;20049;-54
2022/04/27 03:07:53;;;;;;;23.77;15.93;;;8.70;99.90;;;9.04;74.28;97963.84;5042167;28;20043;-56
2022/04/27 03:10:24;;;;;;;25.20;16.33;;;8.80;99.90;;;9.03;73.89;97959.50;5056961;28;20056;-55
2022/04/27 03:12:52;;;;;;;25.70;15.27;;;8.70;99.90;;;9.01;73.83;97956.97;5041314;28;20053;-55
2022/04/27 03:15:20;;;;;;;20.30;13.60;;;8.70;99.90;;;9.02;73.85;97957.84;5042226;28;20041;-54
2022/04/27 03:18:16;;;;;;;22.37;13.53;;;8.70;99.90;;;9.02;74.06;97963.97;5040599;28;20064;-53
2022/04/27 03:20:36;;;;;;;20.50;13.27;;;8.70;99.90;;;8.96;73.88;97958.44;5042159;28;20377;-55
2022/04/27 03:23:04;;;;;;;18.73;13.23;;;8.60;99.90;;;8.89;73.96;97955.47;5041346;28;20064;-51
2022/04/27 03:25:33;;;;;;;18.53;11.97;;;8.50;99.90;;;8.97;74.01;97966.22;5056884;28;20057;-55
2022/04/27 03:28:04;;;;;;;17.57;12.53;;;8.60;99.90;;;8.99;73.91;97966.91;5041259;28;20370;-52
2022/04/27 03:30:33;;;;;;;15.80;11.60;;;8.70;99.90;;;9.05;73.70;97961.06;5042044;28;20042;-56
2022/04/27 03:33:05;;;;;;;17.23;10.87;;;8.80;99.90;;;9.12;73.62;97966.63;5025764;28;20046;-53
2022/04/27 03:35:36;;;;;;;15.93;11.77;;;8.90;99.90;;;9.15;73.63;97963.69;5057058;28;20049;-52
2022/04/27 03:38:04;;;;;;;15.97;9.93;;;8.90;99.90;;;9.20;73.71;97965.91;5042319;28;20050;-53
2022/04/27 03:40:32;;;;;;;12.67;8.73;;;9.00;99.90;;;9.19;73.24;97967.72;5040882;28;20056;-53
2022/04/27 03:43:01;;;;;;;11.27;8.53;;;9.00;99.90;;;9.22;73.05;97969.25;5040761;28;20058;-50
2022/04/27 03:45:29;;;;;;;10.17;8.10;;;9.00;99.90;;;9.23;73.08;97969.09;5040266;28;20059;-54
2022/04/27 03:48:02;;;;;;;11.97;7.70;;;9.00;99.90;;;9.25;72.83;97972.44;5039970;28;20072;-54
2022/04/27 03:50:35;;;;;;;10.57;8.43;;;9.10;99.90;;;9.30;72.73;97973.84;5057542;28;20120;-54
2022/04/27 03:53:04;;;;;;;12.03;8.37;;;9.10;99.90;;;9.32;72.76;97974.53;5041318;28;20049;-53
2022/04/27 03:55:33;;;;;;;10.37;7.57;;;9.20;99.90;;;9.30;72.74;97985.28;5024145;28;20374;-54
2022/04/27 03:58:04;;;;;;;11.80;8.70;;;9.10;99.90;;;9.25;72.54;97987.56;5040661;28;20053;-53
2022/04/27 04:00:34;;;;;;;9.73;7.47;;;8.90;99.90;;;9.27;72.83;97990.91;5040737;28;20378;-52
2022/04/27 04:03:11;;;;;;;12.47;7.70;;;9.00;99.90;;;9.21;72.80;97988.84;5040683;28;20049;-55
2022/04/27 04:05:45;;;;;;;12.77;8.53;;;8.90;99.90;;;9.24;72.63;97994.66;5040480;28;20068;-55
2022/04/27 04:08:14;;;;;;;11.40;7.97;;;8.90;99.90;;;9.22;72.92;97988.66;5041414;28;20041;-54
2022/04/27 04:10:42;;;;;;;11.63;8.53;;;8.90;99.90;;;9.27;72.63;97996.22;5041006;28;20053;-52
2022/04/27 04:13:10;;;;;;;10.87;7.70;;;9.00;99.90;;;9.21;72.63;97996.81;5042459;28;20359;-52
2022/04/27 04:16:07;;;;;;;9.43;7.73;;;8.90;99.90;;;9.17;72.56;97995.38;5041318;28;20344;-54
2022/04/27 04:18:35;;;;;;;10.93;7.93;;;8.80;99.90;;;9.13;72.60;97991.34;5041788;28;20365;-54
2022/04/27 04:21:18;;;;;;;10.73;7.73;;;8.80;99.90;;;9.00;72.75;98003.13;5041137;28;20060;-54
2022/04/27 04:24:16;;;;;;;13.43;8.73;;;8.60;99.90;;;8.95;72.85;97999.22;5044646;28;20467;-54
2022/04/27 04:29:35;;;;;;;11.33;8.63;;;8.50;99.90;;;8.91;72.88;98005.81;5044058;28;20059;-55
2022/04/27 04:32:04;;;;;;;12.60;8.30;;;8.60;99.90;;;9.00;73.18;98021.72;5028401;28;20244;-52
2022/04/27 04:34:42;;;;;;;10.93;7.87;;;8.70;99.90;;;8.94;73.36;98024.94;5044473;28;20051;-54
2022/04/27 04:37:13;;;;;;;14.93;9.13;;;8.60;99.90;;;8.97;72.99;98032.59;5059984;28;20059;-54
2022/04/27 04:39:41;;;;;;;11.37;8.30;;;8.60;99.90;;;9.06;73.19;98036.25;5043563;28;20359;-55
2022/04/27 04:42:09;;;;;;;11.53;9.17;;;8.70;99.90;;;9.04;73.11;98044.34;5028393;28;20064;-53
2022/04/27 04:44:40;;;;;;;13.53;10.07;;;8.70;99.90;;;9.03;73.36;98052.44;5043319;28;20352;-55
2022/04/27 04:47:42;;;;;;;13.50;9.47;;;8.70;99.90;;;9.01;72.89;98047.28;5043511;28;20057;-54
2022/04/27 04:50:29;;;;;;;17.83;11.53;;;8.70;99.90;;;8.95;73.19;98054.97;5046521;28;20047;-53
2022/04/27 04:53:15;;;;;;;19.37;13.90;;;8.60;99.90;;;8.88;72.99;98052.06;5050433;28;20358;-54
2022/04/27 04:56:15;;;;;;;15.70;11.87;;;8.50;99.90;;;8.98;73.03;98054.72;5065571;28;20347;-53
2022/04/27 04:58:52;;;;;;;17.50;13.63;;;8.70;99.90;;;8.96;73.42;98065.47;5046088;28;20046;-52
2022/04/27 05:01:35;;;;;;;16.17;11.40;;;8.70;99.90;;;9.02;73.11;98064.91;5050200;28;20049;-55
2022/04/27 05:04:15;;;;;;;16.13;11.97;;;8.70;99.90;;;8.91;73.58;98064.22;5045038;28;20067;-54
2022/04/27 05:07:11;;;;;;;16.67;12.20;;;8.60;99.90;;;8.86;73.29;98068.13;5043007;28;20247;-54
2022/04/27 05:10:11;;;;;;;18.43;13.30;;;8.50;99.90;;;8.89;73.46;98066.16;5032661;28;20060;-54
2022/04/27 05:12:58;;;;;;;17.43;12.13;;;8.60;99.90;;;8.86;73.45;98069.97;5047485;28;20060;-53
2022/04/27 05:15:49;;;;;;;17.63;11.93;;;8.50;99.90;;;8.93;73.41;98070.22;5041156;28;20063;-52
2022/04/27 05:18:20;;;;;;;17.23;12.63;;;8.60;99.90;;;8.93;73.46;98070.22;5049696;28;20259;-54
2022/04/27 05:21:13;;;;;;;16.03;11.10;;;8.60;99.90;;;8.95;73.38;98077.06;5042872;28;20526;-52
2022/04/27 05:23:40;;;;;;;16.60;11.90;;;8.60;99.90;;;8.99;73.42;98077.63;5044078;28;20049;-54
2022/04/27 05:26:19;;;;;;;17.07;11.57;;;8.70;99.90;;;9.04;73.20;98075.41;5043387;28;20055;-53
2022/04/27 05:31:58;;;;;;;14.97;10.57;;;8.80;99.90;;;9.06;73.21;98084.06;5045836;28;20064;-56
2022/04/27 05:34:44;;;;;;;15.63;11.27;;;8.80;99.90;;;9.08;73.31;98079.44;5041656;28;20053;-55
2022/04/27 05:37:26;;;;;;;15.80;12.17;;;8.80;99.90;;;9.07;73.41;98083.94;5042503;28;20217;-53
2022/04/27 05:40:17;;;;;;;13.80;10.70;;;8.80;99.90;;;9.09;73.09;98082.94;5043815;28;20057;-55
2022/04/27 05:43:16;;;;;;;18.23;11.40;;;8.80;99.90;;;9.13;73.39;98094.94;5060033;28;20228;-52
2022/04/27 05:46:01;;;;;;;16.20;12.03;;;8.80;99.90;;;9.13;73.34;98098.47;5041253;28;20057;-54
2022/04/27 05:48:40;;;;;;;18.83;12.80;;;8.90;99.90;;;9.20;73.03;98096.06;5057749;28;20053;-56
2022/04/27 05:51:31;;;;;;;17.50;12.27;;;8.90;99.90;;;9.15;73.37;98107.13;5043038;28;20054;-55
2022/04/27 05:54:28;;;;;;;19.33;12.37;;;8.90;99.90;;;9.12;73.31;98111.88;5059691;28;20223;-51
2022/04/27 05:57:03;;;;;;;17.70;13.10;;;8.80;99.90;;;9.12;73.23;98118.03;5043086;28;20041;-54
2022/04/27 05:59:59;;;;;;;17.20;11.97;;;8.80;99.90;;;9.20;73.55;98118.16;5058713;28;20059;-56
2022/04/27 06:02:44;;;;;;;19.43;13.30;;;8.90;99.90;;;9.26;73.47;98124.72;5045892;28;20037;-52
2022/04/27 06:05:15;;;;;;;19.87;12.57;;;9.00;99.90;;;9.29;73.47;98120.97;5042380;28;20056;-53
2022/04/27 06:07:43;;;;;;;18.03;12.90;;;9.10;99.90;;;9.33;73.50;98125.84;5025908;28;20053;-56
2022/04/27 06:10:17;;;;;;;15.60;11.73;;;9.10;99.90;;;9.42;73.60;98125.00;5042104;28;20079;-53
2022/04/27 06:12:51;;;;;;;18.80;13.45;;;9.20;99.90;;;9.38;73.08;98128.06;5041781;28;20251;-55
2022/04/27 06:15:37;;;;;;;20.97;14.17;;;9.20;99.90;;;9.36;73.44;98132.69;5043932;28;20099;-55
2022/04/27 06:18:13;;;;;;;18.43;12.17;;;9.10;99.90;;;9.43;73.40;98131.97;5042375;28;20079;-56
2022/04/27 06:20:43;;;;;;;19.73;12.90;;;9.20;99.90;;;9.44;73.17;98133.66;5042513;28;20063;-52
2022/04/27 06:23:16;;;;;;;18.00;13.63;;;9.20;99.90;;;9.52;73.45;98124.13;5042209;28;20055;-55
2022/04/27 06:25:47;;;;;;;18.70;12.83;;;9.30;99.90;;;9.60;73.24;98140.22;5041419;28;20061;-56
2022/04/27 06:28:19;;;;;;;15.50;10.77;;;9.40;99.90;;;9.52;73.16;98138.28;5041466;28;20048;-55
2022/04/27 06:30:51;;;;;;;15.03;10.63;;;9.30;99.90;;;9.45;73.11;98140.63;5041952;28;20051;-52
2022/04/27 06:33:19;;;;;;;14.97;11.03;;;9.20;99.90;;;9.50;73.05;98142.88;5041948;28;20163;-55
2022/04/27 06:35:50;;;;;;;14.30;11.30;;;9.30;99.90;;;9.56;72.89;98142.31;5041511;28;20053;-56
2022/04/27 06:38:19;;;;;;;13.70;11.33;;;9.40;99.90;;;9.56;72.99;98142.31;5058359;28;20259;-55
2022/04/27 06:41:10;;;;;;;13.53;11.00;;;9.40;99.90;;;9.59;73.04;98144.66;5041644;28;20254;-54
2022/04/27 06:43:56;;;;;;;14.47;10.83;;;9.40;99.90;;;9.62;72.56;98146.22;5046363;28;20112;-55
2022/04/27 06:46:43;;;;;;;15.40;10.10;;;9.40;99.90;;;9.69;73.19;98149.13;5043322;28;20377;-55
2022/04/27 06:49:31;;;;;;;12.47;9.57;;;9.50;99.90;;;9.79;72.84;98150.81;5042460;28;20041;-55
2022/04/27 06:52:17;;;;;;;14.90;11.87;;;9.60;99.90;;;9.91;72.46;98147.97;5044955;28;20044;-56
2022/04/27 06:55:04;;;;;;;11.53;9.10;;;9.90;99.90;;;9.99;72.58;98156.06;5043077;28;20055;-56
2022/04/27 06:57:50;;;;;;;12.57;9.00;;;9.90;99.90;;;10.09;72.30;98159.53;5046680;28;20052;-55
2022/04/27 07:00:19;;;;;;;13.57;10.10;;;10.00;99.90;;;10.17;72.28;98158.78;5057733;28;20049;-52
2022/04/27 07:02:47;;;;;;;12.57;10.17;;;10.10;99.90;;;10.21;72.25;98163.66;5057466;28;20049;-52
2022/04/27 07:05:20;;;;;;;11.83;9.43;;;10.20;99.90;;;10.18;72.01;98174.63;5042035;28;20057;-51
2022/04/27 07:07:48;;;;;;;10.87;8.33;;;10.20;99.90;;;10.18;71.54;98171.97;5041980;28;20362;-55
2022/04/27 07:10:17;;;;;;;10.77;8.37;;;10.20;99.90;;;10.28;71.42;98177.25;5042155;28;20049;-52
2022/04/27 07:12:46;;;;;;;9.57;8.07;;;10.30;99.90;;;10.31;71.39;98176.97;5042249;28;20049;-53
2022/04/27 07:15:15;;;;;;;12.27;9.80;;;10.30;99.90;;;10.35;71.64;98182.84;5042219;28;20054;-54
2022/04/27 07:17:43;;;;;;;10.27;7.90;;;10.40;99.90;;;10.39;71.62;98181.56;5041785;28;20262;-53
2022/04/27 07:20:11;;;;;;;9.87;7.30;;;10.50;99.90;;;10.44;71.12;98176.63;5041835;28;20079;-55
2022/04/27 07:22:40;;;;;;;12.10;8.03;;;10.60;99.90;;;10.48;70.91;98183.34;5042273;28;20068;-51
2022/04/27 07:25:08;;;;;;;10.70;8.00;;;10.60;99.90;;;10.59;71.57;98182.31;5042289;28;20059;-54
2022/04/27 07:27:36;;;;;;;10.50;8.35;;;10.70;99.90;;;10.64;71.09;98196.88;5041577;28;20055;-55
2022/04/27 07:30:05;;;;;;;12.23;8.03;;;10.70;99.90;;;10.64;70.91;98191.53;5042273;28;20224;-54
2022/04/27 07:32:33;;;;;;;13.88;8.10;;;10.80;99.90;;;10.76;70.76;98201.97;5041853;28;20053;-54
2022/04/27 07:35:01;;;;;;;8.20;6.70;;;10.90;99.90;;;10.83;70.78;98201.22;5042026;28;20045;-54
2022/04/27 07:37:29;;;;;;;10.23;7.50;;;11.00;99.90;;;10.85;70.49;98209.06;5040319;28;20248;-50
2022/04/27 07:39:58;;;;;;;12.73;8.70;;;11.00;99.90;;;10.92;70.32;98210.16;5041942;28;20049;-52
2022/04/27 07:42:26;;;;;;;11.55;8.45;;;11.10;99.90;;;10.93;70.08;98203.81;5042706;28;20049;-53
2022/04/27 07:44:53;;;;;;;9.48;7.28;;;11.00;99.90;;;10.88;69.37;98207.97;5042322;28;20045;-54
2022/04/27 07:47:21;;;;;;;10.52;8.48;;;11.00;99.90;;;10.80;69.47;98203.38;5040705;28;20112;-53
2022/04/27 07:49:49;;;;;;;10.43;8.27;;;10.90;99.90;;;10.79;69.85;98207.00;5041675;28;20155;-55
2022/04/27 07:52:17;;;;;;;10.73;8.13;;;10.80;99.90;;;10.79;69.61;98209.69;5041784;28;20041;-53
2022/04/27 07:54:45;;;;;;;12.63;8.77;;;10.70;99.90;;;10.80;69.54;98206.88;5041850;28;20045;-54
2022/04/27 07:57:13;;;;;;;10.80;7.80;;;10.80;99.90;;;10.87;69.48;98209.75;5042576;28;20059;-55
2022/04/27 07:59:40;;;;;;;9.63;7.30;;;10.90;99.90;;;10.94;69.29;98210.84;5046175;28;20248;-53
2022/04/27 08:02:08;;;;;;;8.98;7.28;;;11.00;99.90;;;11.00;69.21;98217.41;5045658;28;20049;-52
2022/04/27 08:04:36;;;;;;;9.00;6.90;;;11.00;99.90;;;11.03;69.45;98220.63;5045723;28;20233;-53
2022/04/27 08:07:04;;;;;;;10.27;6.82;;;11.10;99.90;;;11.09;69.30;98213.00;5045291;28;20244;-55
2022/04/27 08:09:32;;;;;;;8.97;7.00;;;11.10;99.90;;;11.14;68.88;98229.38;5045473;28;20344;-55
2022/04/27 08:12:00;;;;;;;8.40;6.05;;;11.20;99.90;;;11.17;68.80;98232.59;5045254;28;20047;-53
2022/04/27 08:14:28;;;;;;;7.65;6.47;;;11.20;99.90;;;11.22;68.55;98232.97;5045493;28;20244;-52
2022/04/27 08:16:58;;;;;;;9.68;7.28;;;11.20;99.90;;;11.28;68.63;98241.34;5044977;28;20041;-54
2022/04/27 08:19:27;;;;;;;9.68;7.40;;;11.30;99.90;;;11.32;68.46;98232.91;5045527;28;20041;-52
2022/04/27 08:21:55;;;;;;;8.07;6.40;;;11.40;99.90;;;11.34;68.26;98246.91;5045094;28;20049;-55
2022/04/27 08:24:24;;;;;;;7.53;5.57;;;11.40;99.90;;;11.35;67.78;98243.25;5045294;28;20056;-55
2022/04/27 08:26:53;;;;;;;8.27;5.93;;;11.40;99.90;;;11.39;68.17;98241.94;5044762;28;20112;-55
2022/04/27 08:29:21;;;;;;;7.00;5.40;;;11.50;99.90;;;11.46;67.81;98249.34;5045056;28;20041;-52
2022/04/27 08:31:49;;;;;;;7.05;6.25;;;11.60;99.90;;;11.52;67.71;98249.59;5045112;28;20041;-54
2022/04/27 08:34:17;;;;;;;7.03;5.47;;;11.70;99.90;;;11.61;67.46;98247.81;5044989;28;20049;-56
2022/04/27 08:36:45;;;;;;;6.60;4.88;;;11.80;99.90;;;11.67;67.33;98257.91;5044463;28;20056;-55
2022/04/27 08:39:13;;;;;;;5.50;4.53;;;11.80;99.90;;;11.74;66.83;98252.78;5044970;28;20049;-54
2022/04/27 08:41:42;;;;;;;6.72;5.30;;;11.90;99.90;;;11.76;66.59;98254.28;5044453;28;20053;-56
2022/04/27 08:44:11;;;;;;;6.10;5.03;;;11.90;99.90;;;11.78;65.82;98259.47;5044848;28;20065;-53
2022/04/27 08:46:42;;;;;;;6.60;5.22;;;12.00;99.90;;;11.78;66.29;98256.81;5043384;28;20041;-53
2022/04/27 08:49:11;;;;;;;7.32;4.78;;;11.90;99.90;;;11.77;66.11;98255.97;5043803;28;20353;-54
2022/04/27 08:51:39;;;;;;;8.25;6.68;;;11.80;99.90;;;11.78;65.66;98256.81;5044513;28;20354;-53
2022/04/27 08:54:10;;;;;;;7.07;5.25;;;11.80;99.90;;;11.71;65.51;98253.94;5044952;28;20056;-51
2022/04/27 08:56:38;;;;;;;6.10;4.72;;;11.70;99.90;;;11.69;64.72;98255.91;5043141;28;20037;-54
2022/04/27 08:59:08;;;;;;;5.35;4.63;;;11.70;99.90;;;11.67;64.76;98257.91;5044526;28;20051;-56
2022/04/27 09:01:36;;;;;;;6.40;4.00;;;11.70;99.90;;;11.76;64.61;98258.78;5044856;28;20057;-50
2022/04/27 09:04:16;;;;;;;6.80;4.15;;;11.80;99.90;;;11.82;65.04;98260.84;5044549;28;20052;-51
2022/04/27 09:06:45;;;;;;;8.38;4.95;;;12.00;99.90;;;11.85;64.00;98257.88;5042546;28;20050;-55
2022/04/27 09:09:37;;;;;;;4.95;4.10;;;12.00;99.90;;;11.88;64.13;98260.22;5043052;28;20048;-53
2022/04/27 09:12:14;;;;;;;5.07;4.25;;;12.00;93.60;;;11.95;64.61;98263.97;5044340;28;20045;-52
2022/04/27 09:14:44;;;;;;;5.30;4.15;;;12.10;96.60;;;12.01;64.11;98266.03;5044295;28;20041;-54
2022/04/27 09:23:04;;;;;;;5.53;4.18;;;12.40;95.00;;;12.24;63.85;98262.88;5044106;28;20058;-53
2022/04/27 09:25:33;;;;;;;5.72;4.70;;;12.50;96.10;;;12.32;63.73;98259.41;5044039;28;20063;-55
2022/04/27 09:28:31;;;;;;;4.93;4.20;;;12.60;95.80;;;12.29;61.90;98260.56;5043982;28;20356;-55
2022/04/27 09:30:59;;;;;;;6.15;4.78;;;12.60;85.80;;;12.32;62.22;98259.41;5042566;28;20248;-55
2022/04/27 09:33:35;;;;;;;5.47;4.15;;;12.60;85.30;;;12.43;63.00;98259.16;5043948;28;20055;-55
2022/04/27 09:36:22;;;;;;;5.28;4.55;;;12.70;87.20;;;12.56;63.16;98272.91;5043583;28;20041;-56
2022/04/27 09:38:51;;;;;;;5.70;4.00;;;12.90;85.70;;;12.68;62.78;98259.25;5042558;28;20052;-57
2022/04/27 09:41:42;;;;;;;5.72;3.72;;;13.00;86.80;;;12.78;63.31;98260.00;5043842;28;20053;-54
2022/04/27 09:44:34;;;;;;;5.10;3.95;;;13.10;83.40;;;12.81;61.81;98262.34;5042695;28;20247;-54
2022/04/27 09:47:04;;;;;;;5.22;3.85;;;13.10;80.20;;;12.88;62.03;98259.88;5041810;28;20221;-54
2022/04/27 09:49:37;;;;;;;5.28;4.30;;;13.20;82.80;;;12.93;61.66;98260.22;5042424;28;20037;-54
2022/04/27 09:52:07;;;;;;;4.93;4.13;;;13.10;80.50;;;12.91;61.27;98259.53;5042302;28;20049;-56
2022/04/27 09:54:36;;;;;;;4.72;4.13;;;13.10;81.60;;;12.92;60.81;98263.88;5044066;28;20056;-56
2022/04/27 09:57:09;;;;;;;5.30;3.47;;;13.10;80.60;;;12.99;61.35;98259.59;5041652;28;20049;-56
2022/04/27 09:59:37;;;;;;;5.80;3.22;;;13.20;81.60;;;13.10;61.21;98263.78;5043409;28;20107;-56
2022/04/27 10:02:10;;;;;;;4.40;3.55;;;13.40;80.50;;;13.15;60.48;98256.94;5043492;28;20046;-56
2022/04/27 10:04:40;;;;;;;5.70;3.55;;;13.50;78.80;;;13.27;60.48;98270.84;5043478;28;20069;-55
2022/04/27 10:07:10;;;;;;;5.20;3.85;;;13.60;78.00;;;13.37;60.63;98266.22;5042823;28;20049;-55
2022/04/27 10:09:39;;;;;;;5.18;3.72;;;13.70;77.80;;;13.46;60.53;98267.09;5043148;28;20041;-55
2022/04/27 10:12:11;;;;;;;4.20;3.10;;;13.90;77.40;;;13.57;60.42;98263.25;5042114;28;20037;-54
2022/04/27 10:14:40;;;;;;;4.85;3.50;;;14.00;76.50;;;13.62;59.66;98266.28;5043366;28;20045;-55
2022/04/27 10:17:11;;;;;;;4.25;3.50;;;14.10;74.60;;;13.74;60.46;98269.47;5042702;28;20037;-56
2022/04/27 10:19:50;;;;;;;5.30;4.28;;;14.20;75.40;;;13.80;59.13;98271.47;5041574;28;20113;-55
2022/04/27 10:22:26;;;;;;;4.68;4.07;;;14.20;70.30;;;13.73;58.69;98275.81;5042974;28;20049;-55
2022/04/27 10:24:56;;;;;;;4.95;3.70;;;14.20;70.90;;;13.78;58.09;98268.13;5043228;28;20049;-54
2022/04/27 10:27:36;;;;;;;5.78;3.80;;;14.20;70.10;;;13.83;58.75;98262.28;5042283;28;20085;-55
2022/04/27 10:30:07;;;;;;;5.38;3.67;;;14.10;72.80;;;13.87;58.70;98264.44;5042203;28;20045;-54
2022/04/27 10:32:53;;;;;;;5.18;4.03;;;14.20;72.10;;;13.94;58.97;98268.13;5042723;28;20239;-56
2022/04/27 10:35:33;;;;;;;5.18;3.42;;;14.30;70.40;;;14.03;59.12;98255.56;5042568;28;20061;-56
2022/04/27 10:38:05;;;;;;;6.40;3.90;;;14.40;70.70;;;13.98;57.85;98260.63;5042521;28;20075;-55
2022/04/27 10:40:43;;;;;;;6.03;5.05;;;14.40;71.00;;;14.07;58.31;98266.78;5042780;28;20340;-56
2022/04/27 10:43:40;;;;;;;5.20;4.00;;;14.40;70.40;;;14.11;58.00;98260.09;5042714;28;20061;-52
2022/04/27 10:46:36;;;;;;;5.93;4.78;;;14.50;70.90;;;14.23;58.57;98268.59;5041577;28;20049;-56
2022/04/27 10:49:27;;;;;;;6.40;4.30;;;14.60;68.20;;;14.31;58.57;98266.78;5042317;28;20057;-54
2022/04/27 10:52:00;;;;;;;6.43;4.68;;;14.80;67.90;;;14.40;57.90;98262.22;5042587;28;20055;-52
2022/04/27 10:54:31;;;;;;;6.45;4.20;;;14.80;69.00;;;14.45;57.51;98270.59;5043646;28;20046;-55
2022/04/27 10:57:18;;;;;;;7.60;4.50;;;14.90;68.90;;;14.48;56.16;98272.09;5042451;28;20053;-55
2022/04/27 10:59:59;;;;;;;5.45;4.47;;;15.00;65.10;;;14.56;56.93;98272.94;5042456;28;20051;-56
2022/04/27 11:02:39;;;;;;;4.50;4.05;;;15.00;68.50;;;14.59;57.16;98271.75;5042446;28;20056;-55
2022/04/27 11:05:13;;;;;;;5.93;5.32;;;15.10;67.50;;;14.70;57.11;98267.91;5042279;28;20342;-55